Time;durP1;ratioP1;P1;durP2;ratioP2;P2;SDS_P1;SDS_P2;PMS_P1;PMS_P2;Temp;Humidity;BMP_temperature;BMP_pressure;BME280_temperature;BME280_humidity;BME280_pressure;Samples;Min_cycle;Max_cycle;Signal;HPM_P1;HPM_P2
2022/11/28 00:00:14;;;;;;;1999.90;999.90;;;7.80;99.90;;;;;;5115754;28;20636;-68
2022/11/28 00:02:40;;;;;;;1999.90;999.90;;;7.80;99.90;;;;;;5115646;28;20192;-69
2022/11/28 00:05:08;;;;;;;1999.90;999.90;;;7.90;99.90;;;;;;5115591;28;20517;-68
2022/11/28 00:07:34;;;;;;;1999.90;999.90;;;7.90;99.90;;;;;;5115348;28;20870;-68
2022/11/28 00:10:00;;;;;;;1999.90;999.90;;;7.90;99.90;;;;;;5115574;28;20422;-68
2022/11/28 00:12:27;;;;;;;1999.90;999.90;;;7.90;99.90;;;;;;5115397;28;20171;-68
2022/11/28 00:14:53;;;;;;;1999.90;999.90;;;8.00;99.90;;;;;;5115388;28;20447;-68
2022/11/28 00:17:19;;;;;;;1999.90;999.90;;;8.00;99.90;;;;;;5115211;28;20403;-68
2022/11/28 00:19:44;;;;;;;1999.90;999.90;;;7.90;99.90;;;;;;5115311;28;20411;-69
2022/11/28 00:22:10;;;;;;;1999.90;999.90;;;7.90;99.90;;;;;;5115259;28;20250;-68
2022/11/28 00:24:36;;;;;;;1999.90;999.90;;;7.90;99.90;;;;;;5115230;28;20297;-68
2022/11/28 00:27:01;;;;;;;1999.90;999.90;;;7.90;99.90;;;;;;5114998;28;20170;-68
2022/11/28 00:29:27;;;;;;;1999.90;999.90;;;7.90;99.90;;;;;;5115142;28;20174;-68
2022/11/28 00:31:52;;;;;;;1999.90;999.90;;;8.00;99.90;;;;;;5115192;28;20562;-68
2022/11/28 00:34:18;;;;;;;1999.90;999.90;;;8.00;99.90;;;;;;5115053;28;20190;-68
2022/11/28 00:36:45;;;;;;;1999.90;999.90;;;8.00;99.90;;;;;;5114859;28;20167;-68
2022/11/28 00:39:11;;;;;;;1999.90;999.90;;;7.90;99.90;;;;;;5115366;28;20171;-70
2022/11/28 00:41:37;;;;;;;1999.90;999.90;;;7.90;99.90;;;;;;5117071;28;20439;-69
2022/11/28 00:44:03;;;;;;;1999.90;999.90;;;7.90;99.90;;;;;;5115774;28;20455;-69
2022/11/28 00:46:28;;;;;;;1999.90;999.90;;;7.90;99.90;;;;;;5114778;28;20165;-68
2022/11/28 00:48:54;;;;;;;1999.90;999.90;;;7.90;99.90;;;;;;5114726;28;20163;-68
2022/11/28 00:51:25;;;;;;;1999.90;999.90;;;7.90;99.90;;;;;;5114861;28;20182;-68
2022/11/28 00:53:53;;;;;;;1999.90;999.90;;;7.90;99.90;;;;;;5114606;28;20247;-68
2022/11/28 00:56:22;;;;;;;1999.90;999.90;;;8.00;99.90;;;;;;5114639;28;20900;-67
2022/11/28 00:58:48;;;;;;;1999.90;999.90;;;8.00;99.90;;;;;;5114558;28;20404;-68
2022/11/28 01:01:22;;;;;;;1999.90;999.90;;;8.00;99.90;;;;;;5114643;28;20407;-68
2022/11/28 01:03:49;;;;;;;1999.90;999.90;;;8.00;99.90;;;;;;5114435;28;20447;-69
2022/11/28 01:06:30;;;;;;;1999.90;999.90;;;8.00;99.90;;;;;;5114321;28;20418;-69
2022/11/28 01:08:58;;;;;;;1999.90;999.90;;;8.00;99.90;;;;;;5113463;28;20420;-69
2022/11/28 01:11:24;;;;;;;1999.90;999.90;;;8.00;99.90;;;;;;5114396;28;20396;-70
2022/11/28 01:13:52;;;;;;;1999.90;999.90;;;8.10;99.90;;;;;;5153591;22;20827;-68
2022/11/28 01:16:18;;;;;;;1999.90;999.90;;;8.00;99.90;;;;;;5032761;28;20514;-68
2022/11/28 01:18:43;;;;;;;1999.90;999.90;;;8.00;99.90;;;;;;5033553;28;20984;-68
2022/11/28 01:21:09;;;;;;;1999.90;999.90;;;8.10;99.90;;;;;;5033656;28;20687;-68
2022/11/28 01:23:35;;;;;;;1999.90;999.90;;;8.00;99.90;;;;;;5033696;28;20207;-68
2022/11/28 01:26:03;;;;;;;1999.90;999.90;;;8.00;99.90;;;;;;5033545;28;20446;-68
2022/11/28 01:28:28;;;;;;;1999.90;999.90;;;8.00;99.90;;;;;;5033248;28;20265;-68
2022/11/28 01:30:54;;;;;;;1999.90;999.90;;;8.00;99.90;;;;;;5033512;28;20838;-68
2022/11/28 01:33:20;;;;;;;1999.90;999.90;;;8.00;99.90;;;;;;5033452;28;20169;-68
2022/11/28 01:35:56;;;;;;;1999.90;999.90;;;8.00;99.90;;;;;;5033102;28;20277;-68
2022/11/28 01:38:22;;;;;;;1999.90;999.90;;;8.00;99.90;;;;;;5033150;28;20173;-68
2022/11/28 01:40:48;;;;;;;1999.90;999.90;;;8.00;99.90;;;;;;5033254;28;20415;-69
2022/11/28 01:43:14;;;;;;;1999.90;999.90;;;8.00;99.90;;;;;;5033135;28;20209;-69
2022/11/28 01:45:40;;;;;;;1999.90;999.90;;;8.10;99.90;;;;;;5033075;28;20807;-69
2022/11/28 01:48:07;;;;;;;1999.90;999.90;;;8.10;99.90;;;;;;5032909;28;20534;-69
2022/11/28 01:50:34;;;;;;;1999.90;999.90;;;8.10;99.90;;;;;;5033150;28;20783;-68
2022/11/28 01:53:05;;;;;;;1999.90;999.90;;;8.10;99.90;;;;;;5033080;28;20421;-68
2022/11/28 01:55:34;;;;;;;1999.90;999.90;;;8.10;99.90;;;;;;5032952;28;20451;-69
2022/11/28 01:58:00;;;;;;;1999.90;999.90;;;8.20;99.90;;;;;;5032672;28;20759;-68
2022/11/28 02:00:26;;;;;;;1999.90;999.90;;;8.20;99.90;;;;;;5032882;28;20408;-69
2022/11/28 02:03:17;;;;;;;1999.90;999.90;;;8.10;99.90;;;;;;5032691;28;20446;-69
2022/11/28 02:05:43;;;;;;;1999.90;999.90;;;8.20;99.90;;;;;;5032806;28;20189;-69
2022/11/28 02:08:09;;;;;;;1999.90;999.90;;;8.20;99.90;;;;;;5032476;28;20466;-68
2022/11/28 02:10:50;;;;;;;1999.90;999.90;;;8.20;99.90;;;;;;5032717;28;20407;-68
2022/11/28 02:13:28;;;;;;;1999.90;999.90;;;8.30;99.90;;;;;;5032651;28;20173;-68
2022/11/28 02:16:14;;;;;;;1999.90;999.90;;;8.30;99.90;;;;;;5032414;28;20487;-68
2022/11/28 02:19:18;;;;;;;1999.90;999.90;;;8.30;99.90;;;;;;5032407;28;20908;-68
2022/11/28 02:22:17;;;;;;;1999.90;999.90;;;8.30;99.90;;;;;;4991416;28;20416;-68
2022/11/28 02:25:02;;;;;;;1999.90;999.90;;;8.20;99.90;;;;;;5032406;28;20442;-68
2022/11/28 02:27:53;;;;;;;1999.90;999.90;;;8.30;99.90;;;;;;5032234;28;20500;-68
2022/11/28 02:30:23;;;;;;;1999.90;999.90;;;8.30;99.90;;;;;;5032440;28;20431;-68
2022/11/28 02:33:14;;;;;;;1999.90;999.90;;;8.40;99.90;;;;;;5032334;28;20395;-68
2022/11/28 02:35:46;;;;;;;1999.90;999.90;;;8.40;99.90;;;;;;5032200;28;20427;-68
2022/11/28 02:38:48;;;;;;;1999.90;999.90;;;8.40;99.90;;;;;;5031982;28;20960;-68
2022/11/28 02:41:20;;;;;;;1999.90;999.90;;;8.40;99.90;;;;;;5001512;28;20418;-68
2022/11/28 02:44:23;;;;;;;1999.90;999.90;;;8.30;99.90;;;;;;5031982;28;20453;-68
2022/11/28 02:46:53;;;;;;;1999.90;999.90;;;8.30;99.90;;;;;;5031805;28;20787;-68
2022/11/28 02:49:51;;;;;;;1999.90;999.90;;;8.20;99.90;;;;;;5032216;28;20444;-68
2022/11/28 02:52:23;;;;;;;1999.90;999.90;;;8.10;99.90;;;;;;5032142;28;20409;-68
2022/11/28 02:54:50;;;;;;;1999.90;999.90;;;8.20;99.90;;;;;;5031912;28;20479;-68
2022/11/28 02:57:16;;;;;;;1999.90;999.90;;;8.20;99.90;;;;;;5032094;28;20407;-68
2022/11/28 02:59:42;;;;;;;1999.90;999.90;;;8.20;99.90;;;;;;5032094;28;20407;-68
2022/11/28 03:02:27;;;;;;;1999.90;999.90;;;8.30;99.90;;;;;;5031880;28;20170;-68
2022/11/28 03:05:34;;;;;;;1999.90;999.90;;;8.30;99.90;;;;;;5032014;28;20259;-68
2022/11/28 03:08:17;;;;;;;1999.90;999.90;;;8.20;99.90;;;;;;4951282;29;20476;-68
2022/11/28 03:11:02;;;;;;;1999.90;999.90;;;8.30;99.90;;;;;;5024464;28;20465;-68
2022/11/28 03:13:43;;;;;;;1999.90;999.90;;;8.30;99.90;;;;;;5031786;28;20472;-68
2022/11/28 03:16:33;;;;;;;1999.90;999.90;;;8.40;99.90;;;;;;5031774;28;20435;-68
2022/11/28 03:19:08;;;;;;;1999.90;999.90;;;8.40;99.90;;;;;;5031715;28;20426;-68
2022/11/28 03:21:46;;;;;;;1999.90;999.90;;;8.30;99.90;;;;;;5031825;28;20405;-68
2022/11/28 03:24:18;;;;;;;1999.90;999.90;;;8.20;99.90;;;;;;5031736;28;21152;-68
2022/11/28 03:27:04;;;;;;;1999.90;999.90;;;8.20;99.90;;;;;;5031477;28;20409;-68
2022/11/28 03:29:37;;;;;;;1999.90;999.90;;;8.20;99.90;;;;;;5031379;28;20419;-68
2022/11/28 03:32:08;;;;;;;1999.90;999.90;;;8.10;99.90;;;;;;5033967;28;20778;-68
2022/11/28 03:34:38;;;;;;;1999.90;999.90;;;8.10;99.90;;;;;;5035561;28;20509;-68
2022/11/28 03:37:12;;;;;;;1999.90;999.90;;;8.10;99.90;;;;;;5035582;28;20452;-68
2022/11/28 03:39:42;;;;;;;1999.90;999.90;;;8.10;99.90;;;;;;5035547;28;20436;-68
2022/11/28 03:42:13;;;;;;;1999.90;999.90;;;8.10;99.90;;;;;;5035548;28;20852;-68
2022/11/28 03:44:52;;;;;;;1999.90;999.90;;;8.20;99.90;;;;;;5035383;28;20443;-68
2022/11/28 03:47:18;;;;;;;1999.90;999.90;;;8.10;99.90;;;;;;5035171;28;20403;-68
2022/11/28 03:49:55;;;;;;;1999.90;999.90;;;8.10;99.90;;;;;;5035419;28;20412;-69
2022/11/28 03:52:39;;;;;;;1999.90;999.90;;;8.10;99.90;;;;;;5035336;28;20165;-68
2022/11/28 03:55:15;;;;;;;1999.90;999.90;;;8.10;99.90;;;;;;5035207;28;20436;-68
2022/11/28 03:57:50;;;;;;;1999.90;999.90;;;8.10;99.90;;;;;;5034928;28;21098;-68
2022/11/28 04:00:16;;;;;;;1999.90;999.90;;;8.10;99.90;;;;;;5035208;28;20412;-68
2022/11/28 04:03:04;;;;;;;1999.90;999.90;;;8.10;99.90;;;;;;5035021;28;20506;-68
2022/11/28 04:05:52;;;;;;;1999.90;999.90;;;8.10;99.90;;;;;;5034931;28;20917;-68
2022/11/28 04:08:25;;;;;;;1999.90;999.90;;;8.10;99.90;;;;;;5035016;28;20410;-68
2022/11/28 04:11:14;;;;;;;1999.90;999.90;;;8.00;99.90;;;;;;5035011;28;20396;-68
2022/11/28 04:14:17;;;;;;;1999.90;999.90;;;8.10;99.90;;;;;;5035011;28;20895;-68
2022/11/28 04:17:18;;;;;;;1999.90;999.90;;;8.10;99.90;;;;;;5034728;28;20416;-68
2022/11/28 04:19:52;;;;;;;1999.90;999.90;;;8.00;99.90;;;;;;4967467;28;20512;-68
2022/11/28 04:22:30;;;;;;;1999.90;999.90;;;8.00;99.90;;;;;;5034703;28;20437;-68
2022/11/28 04:25:18;;;;;;;1999.90;999.90;;;8.10;99.90;;;;;;5034672;28;20425;-68
2022/11/28 04:27:56;;;;;;;1999.90;999.90;;;8.00;99.90;;;;;;5034447;28;20403;-68
2022/11/28 04:30:22;;;;;;;1999.90;999.90;;;8.10;99.90;;;;;;5034701;28;20467;-68
2022/11/28 04:32:56;;;;;;;1999.90;999.90;;;8.00;99.90;;;;;;5034557;28;20463;-68
2022/11/28 04:35:29;;;;;;;1999.90;999.90;;;8.00;99.90;;;;;;5016721;28;20441;-68
2022/11/28 04:37:58;;;;;;;1999.90;999.90;;;7.90;99.90;;;;;;5034260;28;20551;-68
2022/11/28 04:40:26;;;;;;;1999.90;999.90;;;7.90;99.90;;;;;;5034422;28;20412;-68
2022/11/28 04:43:15;;;;;;;1999.90;999.90;;;8.00;99.90;;;;;;5033304;28;20448;-68
2022/11/28 04:45:54;;;;;;;1999.90;999.90;;;7.90;99.90;;;;;;5034252;28;20574;-68
2022/11/28 04:48:20;;;;;;;1999.90;999.90;;;7.90;99.90;;;;;;5034072;28;20406;-68
2022/11/28 04:50:56;;;;;;;1999.90;999.90;;;7.90;99.90;;;;;;5034284;28;20403;-68
2022/11/28 04:53:34;;;;;;;1999.90;999.90;;;7.90;99.90;;;;;;5034169;28;20415;-68
2022/11/28 04:56:05;;;;;;;1999.90;999.90;;;7.90;99.90;;;;;;5034024;28;20462;-68
2022/11/28 04:58:39;;;;;;;1999.90;999.90;;;7.90;99.90;;;;;;5034095;28;20420;-68
2022/11/28 05:01:08;;;;;;;1999.90;999.90;;;7.90;99.90;;;;;;5034032;28;20458;-68
2022/11/28 05:03:34;;;;;;;1999.90;999.90;;;7.90;99.90;;;;;;5033900;28;20967;-68
2022/11/28 05:06:02;;;;;;;1999.90;999.90;;;7.90;99.90;;;;;;5033734;28;20428;-68
2022/11/28 05:08:27;;;;;;;1999.90;999.90;;;7.90;99.90;;;;;;5033737;28;20897;-69
2022/11/28 05:10:53;;;;;;;1999.90;999.90;;;7.90;99.90;;;;;;5033861;28;20412;-69
2022/11/28 05:13:19;;;;;;;1999.90;999.90;;;7.90;99.90;;;;;;5033880;28;20185;-69
2022/11/28 05:15:44;;;;;;;1999.90;999.90;;;8.00;99.90;;;;;;5033602;28;20743;-69
2022/11/28 05:18:10;;;;;;;1999.90;999.90;;;7.90;99.90;;;;;;5033465;28;20541;-68
2022/11/28 05:20:37;;;;;;;1999.90;999.90;;;7.90;99.90;;;;;;5033718;28;20176;-68
2022/11/28 05:23:02;;;;;;;1999.90;999.90;;;7.90;99.90;;;;;;5033712;28;20277;-69
2022/11/28 05:25:28;;;;;;;1999.90;999.90;;;7.90;99.90;;;;;;5033572;28;20432;-69
2022/11/28 05:27:54;;;;;;;1999.90;999.90;;;7.90;99.90;;;;;;5033274;28;20193;-69
2022/11/28 05:30:19;;;;;;;1999.90;999.90;;;7.90;99.90;;;;;;5033512;28;20240;-69
2022/11/28 05:32:45;;;;;;;1999.90;999.90;;;7.90;99.90;;;;;;5033366;28;20245;-69
2022/11/28 05:35:10;;;;;;;1999.90;999.90;;;7.90;99.90;;;;;;5033308;28;20720;-69
2022/11/28 05:37:36;;;;;;;1999.90;999.90;;;7.80;99.90;;;;;;5033139;28;20205;-69
2022/11/28 05:40:02;;;;;;;1999.90;999.90;;;7.80;99.90;;;;;;5033325;28;20256;-68
2022/11/28 05:42:34;;;;;;;1999.90;999.90;;;7.80;99.90;;;;;;5033223;28;20838;-68
2022/11/28 05:45:00;;;;;;;1999.90;999.90;;;7.80;99.90;;;;;;5033228;28;20877;-68
2022/11/28 05:47:29;;;;;;;1999.90;999.90;;;7.70;99.90;;;;;;5032765;28;20405;-69
2022/11/28 05:49:55;;;;;;;1999.90;999.90;;;7.80;99.90;;;;;;5032932;28;21012;-69
2022/11/28 05:52:20;;;;;;;1999.90;999.90;;;7.80;99.90;;;;;;5033050;28;20483;-69
2022/11/28 05:54:46;;;;;;;1999.90;999.90;;;7.70;99.90;;;;;;5032821;28;20359;-68
2022/11/28 05:57:12;;;;;;;1999.90;999.90;;;7.70;99.90;;;;;;5032793;28;20679;-68
2022/11/28 05:59:37;;;;;;;1999.90;999.90;;;7.70;99.90;;;;;;5032829;28;20181;-68
2022/11/28 06:02:03;;;;;;;1999.90;999.90;;;7.70;99.90;;;;;;5032880;28;20172;-69
2022/11/28 06:04:28;;;;;;;1999.90;999.90;;;7.70;99.90;;;;;;5032640;28;20200;-69
2022/11/28 06:06:54;;;;;;;1999.90;999.90;;;7.60;99.90;;;;;;5032538;28;20166;-68
2022/11/28 06:09:19;;;;;;;1999.90;999.90;;;7.60;99.90;;;;;;5032696;28;20677;-68
2022/11/28 06:11:45;;;;;;;1999.90;999.90;;;7.60;99.90;;;;;;5032759;28;20209;-68
2022/11/28 06:14:11;;;;;;;1999.90;999.90;;;7.60;99.90;;;;;;5032457;28;20221;-68
2022/11/28 06:16:36;;;;;;;1999.90;999.90;;;7.60;99.90;;;;;;5032576;28;20172;-68
2022/11/28 06:19:04;;;;;;;1999.90;999.90;;;7.60;99.90;;;;;;5032459;28;20180;-68
2022/11/28 06:21:30;;;;;;;1999.90;999.90;;;7.60;99.90;;;;;;5032514;28;20179;-68
2022/11/28 06:23:59;;;;;;;1999.90;999.90;;;7.60;99.90;;;;;;5032238;28;20502;-68
2022/11/28 06:26:27;;;;;;;1999.90;999.90;;;7.60;99.90;;;;;;5032328;28;20409;-68
2022/11/28 06:28:56;;;;;;;1999.90;999.90;;;7.60;99.90;;;;;;5032232;28;20400;-68
2022/11/28 06:31:26;;;;;;;1999.90;999.90;;;7.70;99.90;;;;;;5032171;28;20552;-68
2022/11/28 06:33:51;;;;;;;1999.90;999.90;;;7.70;99.90;;;;;;5032192;28;20913;-68
2022/11/28 06:36:18;;;;;;;1999.90;999.90;;;7.70;99.90;;;;;;5032302;28;20415;-68
2022/11/28 06:38:44;;;;;;;1999.90;999.90;;;7.70;99.90;;;;;;5032084;28;20566;-68
2022/11/28 06:41:13;;;;;;;1999.90;999.90;;;7.70;99.90;;;;;;5032273;28;20462;-68
2022/11/28 06:43:39;;;;;;;1999.90;999.90;;;7.70;99.90;;;;;;5032202;28;20967;-69
2022/11/28 06:46:05;;;;;;;1999.90;999.90;;;7.70;99.90;;;;;;5031866;28;20517;-68
2022/11/28 06:48:31;;;;;;;1999.90;999.90;;;7.70;99.90;;;;;;5032186;28;20932;-68
2022/11/28 06:51:04;;;;;;;1999.90;999.90;;;7.80;99.90;;;;;;5032068;28;20481;-68
2022/11/28 06:53:30;;;;;;;1999.90;999.90;;;7.70;99.90;;;;;;5032051;28;20447;-68
2022/11/28 06:55:56;;;;;;;1999.90;999.90;;;7.70;99.90;;;;;;5031975;28;20430;-68
2022/11/28 06:58:21;;;;;;;1999.90;999.90;;;7.80;99.90;;;;;;5032050;28;20234;-68
2022/11/28 07:00:47;;;;;;;1999.90;999.90;;;7.70;99.90;;;;;;5031540;28;20284;-68
2022/11/28 07:03:12;;;;;;;1999.90;999.90;;;7.80;99.90;;;;;;5031682;28;20203;-68
2022/11/28 07:05:38;;;;;;;1999.90;999.90;;;7.70;99.90;;;;;;5031469;28;20188;-68
2022/11/28 07:08:05;;;;;;;1999.90;999.90;;;7.70;99.90;;;;;;5031323;28;20184;-68
2022/11/28 07:10:30;;;;;;;1999.90;999.90;;;7.70;99.90;;;;;;5031570;28;20203;-68
2022/11/28 07:12:58;;;;;;;1999.90;999.90;;;7.70;99.90;;;;;;5031861;28;20411;-68
2022/11/28 07:15:25;;;;;;;1999.90;999.90;;;7.70;99.90;;;;;;5056627;22;20588;-68
2022/11/28 07:17:51;;;;;;;1999.90;999.90;;;7.70;99.90;;;;;;5054303;28;20895;-68
2022/11/28 07:20:17;;;;;;;1999.90;999.90;;;7.70;99.90;;;;;;5051841;28;20473;-67
2022/11/28 07:22:43;;;;;;;1999.90;999.90;;;7.70;99.90;;;;;;5052026;28;20448;-68
2022/11/28 07:25:09;;;;;;;1999.90;999.90;;;7.70;99.90;;;;;;5051876;28;20191;-67
2022/11/28 07:27:35;;;;;;;1999.90;999.90;;;7.70;99.90;;;;;;5051718;28;20396;-68
2022/11/28 07:30:01;;;;;;;1999.90;999.90;;;7.70;99.90;;;;;;5051887;28;20742;-68
2022/11/28 07:32:27;;;;;;;1999.90;999.90;;;7.70;99.90;;;;;;5053364;28;20672;-69
2022/11/28 07:34:52;;;;;;;1999.90;999.90;;;7.70;99.90;;;;;;5054157;28;20207;-69
2022/11/28 07:37:18;;;;;;;1999.90;999.90;;;7.70;99.90;;;;;;5053981;28;20164;-68
2022/11/28 07:39:44;;;;;;;1999.90;999.90;;;7.70;99.90;;;;;;5052319;28;20602;-68
2022/11/28 07:42:10;;;;;;;1999.90;999.90;;;7.70;99.90;;;;;;5053876;28;20200;-68
2022/11/28 07:44:36;;;;;;;1999.90;999.90;;;7.70;99.90;;;;;;5051280;28;20238;-69
2022/11/28 07:47:02;;;;;;;1999.90;999.90;;;7.70;99.90;;;;;;5051229;28;20439;-68
2022/11/28 07:49:27;;;;;;;1999.90;999.90;;;7.70;99.90;;;;;;5052312;28;20168;-69
2022/11/28 07:51:53;;;;;;;1999.90;999.90;;;7.70;99.90;;;;;;5053369;28;20403;-70
2022/11/28 07:54:19;;;;;;;1999.90;999.90;;;7.80;99.90;;;;;;5051462;28;20268;-68
2022/11/28 07:56:44;;;;;;;1999.90;999.90;;;7.80;99.90;;;;;;5051204;28;20722;-68
2022/11/28 07:59:11;;;;;;;1999.90;999.90;;;7.90;99.90;;;;;;5051244;28;20185;-68
2022/11/28 08:01:37;;;;;;;1999.90;999.90;;;7.90;99.90;;;;;;5051385;28;20179;-69
2022/11/28 08:04:05;;;;;;;1999.90;999.90;;;7.90;99.90;;;;;;5051387;28;20454;-68
2022/11/28 08:06:35;;;;;;;1999.90;999.90;;;8.00;99.90;;;;;;5051070;28;20847;-68
2022/11/28 08:09:01;;;;;;;1999.90;999.90;;;8.00;99.90;;;;;;5051113;28;20755;-68
2022/11/28 08:11:28;;;;;;;1999.90;999.90;;;8.10;99.90;;;;;;5051184;28;20414;-68
2022/11/28 08:13:56;;;;;;;1999.90;999.90;;;8.10;99.90;;;;;;5051309;28;20411;-68
2022/11/28 08:16:23;;;;;;;1999.90;999.90;;;8.20;99.90;;;;;;5051021;28;20445;-68
2022/11/28 08:18:50;;;;;;;1999.90;999.90;;;8.20;99.90;;;;;;5052707;28;20415;-69
2022/11/28 08:21:20;;;;;;;1999.90;999.90;;;8.30;99.90;;;;;;5054714;28;20883;-69
2022/11/28 08:23:46;;;;;;;1999.90;999.90;;;8.30;99.90;;;;;;5054754;28;20848;-69
2022/11/28 08:26:14;;;;;;;1999.90;999.90;;;8.30;99.90;;;;;;5054505;28;20438;-69
2022/11/28 08:28:41;;;;;;;1999.90;999.90;;;8.30;99.90;;;;;;5054434;28;20408;-68
2022/11/28 08:31:12;;;;;;;1999.90;999.90;;;8.30;99.90;;;;;;5054575;28;20414;-68
2022/11/28 08:33:38;;;;;;;1999.90;999.90;;;8.30;99.90;;;;;;5055346;28;20466;-69
2022/11/28 08:36:09;;;;;;;1999.90;999.90;;;8.30;99.90;;;;;;5058138;28;20431;-69
2022/11/28 08:38:36;;;;;;;1999.90;999.90;;;8.30;99.90;;;;;;5058700;28;21108;-69
2022/11/28 08:41:08;;;;;;;1999.90;999.90;;;8.20;99.90;;;;;;5059087;28;20414;-69
2022/11/28 08:43:35;;;;;;;1999.90;999.90;;;8.30;99.90;;;;;;5058219;28;20483;-68
2022/11/28 08:46:01;;;;;;;1999.90;999.90;;;8.30;99.90;;;;;;5058633;28;20932;-69
2022/11/28 08:48:28;;;;;;;1999.90;999.90;;;8.20;99.90;;;;;;5056106;28;20492;-69
2022/11/28 08:50:53;;;;;;;1999.90;999.90;;;8.20;99.90;;;;;;5054354;28;20410;-68
2022/11/28 08:53:19;;;;;;;1999.90;999.90;;;8.20;99.90;;;;;;5054292;28;20402;-69
2022/11/28 08:55:45;;;;;;;1999.90;999.90;;;8.30;99.90;;;;;;5054048;28;20197;-69
2022/11/28 08:58:11;;;;;;;1999.90;999.90;;;8.30;99.90;;;;;;5053764;28;20175;-69
2022/11/28 09:00:37;;;;;;;1999.90;999.90;;;8.30;99.90;;;;;;5054059;28;20253;-69
2022/11/28 09:03:03;;;;;;;1999.90;999.90;;;8.40;99.90;;;;;;5056286;28;20494;-69
2022/11/28 09:05:29;;;;;;;1999.90;999.90;;;8.40;99.90;;;;;;5058766;28;20558;-69
2022/11/28 09:07:55;;;;;;;1999.90;999.90;;;8.40;99.90;;;;;;5058480;28;20487;-69
2022/11/28 09:10:21;;;;;;;1999.90;999.90;;;8.40;99.90;;;;;;5055797;28;20870;-69
2022/11/28 09:12:47;;;;;;;1999.90;999.90;;;8.40;99.90;;;;;;5054859;28;20495;-70
2022/11/28 09:15:12;;;;;;;1999.90;999.90;;;8.40;99.90;;;;;;5054297;28;20448;-67
2022/11/28 09:17:41;;;;;;;1999.90;999.90;;;8.50;99.90;;;;;;5053764;28;20183;-67
2022/11/28 09:20:07;;;;;;;1999.90;999.90;;;8.60;99.90;;;;;;5052286;28;20185;-68
2022/11/28 09:22:33;;;;;;;1999.90;999.90;;;8.60;99.90;;;;;;5038528;28;20420;-70
2022/11/28 09:24:58;;;;;;;1999.90;999.90;;;8.60;99.90;;;;;;5055641;28;20424;-70
2022/11/28 09:27:24;;;;;;;1999.90;999.90;;;8.70;99.90;;;;;;5038420;28;20170;-70
2022/11/28 09:29:49;;;;;;;1999.90;999.90;;;8.70;99.90;;;;;;5052401;28;20205;-69
2022/11/28 09:32:15;;;;;;;1999.90;999.90;;;8.70;99.90;;;;;;5053891;28;20176;-69
2022/11/28 09:34:41;;;;;;;1999.90;999.90;;;8.70;99.90;;;;;;5053630;28;20221;-69
2022/11/28 09:37:06;;;;;;;1999.90;999.90;;;8.80;99.90;;;;;;5053243;28;20181;-69
2022/11/28 09:39:32;;;;;;;1999.90;999.90;;;8.70;99.90;;;;;;5054393;28;20517;-69
2022/11/28 09:42:06;;;;;;;1999.90;999.90;;;8.70;99.90;;;;;;5054036;28;20199;-69
2022/11/28 09:44:43;;;;;;;1999.90;999.90;;;8.70;99.90;;;;;;5055431;28;20218;-69
2022/11/28 09:47:18;;;;;;;1999.90;999.90;;;8.80;99.90;;;;;;5054215;28;20413;-71
2022/11/28 09:49:56;;;;;;;1999.90;999.90;;;8.80;99.90;;;;;;5058112;28;20406;-67
2022/11/28 09:52:31;;;;;;;1999.90;999.90;;;8.80;99.90;;;;;;5037902;28;20419;-68
2022/11/28 09:55:15;;;;;;;1999.90;999.90;;;8.90;99.90;;;;;;5052911;28;20433;-68
2022/11/28 09:57:49;;;;;;;1999.90;999.90;;;8.90;99.90;;;;;;5051862;28;20420;-67
2022/11/28 10:00:35;;;;;;;1999.90;999.90;;;9.00;99.90;;;;;;5052920;28;20495;-68
2022/11/28 10:03:09;;;;;;;1999.90;999.90;;;9.00;99.90;;;;;;5052760;28;20479;-68
2022/11/28 10:05:44;;;;;;;1999.90;999.90;;;9.10;99.90;;;;;;5052181;28;20948;-69
2022/11/28 10:08:24;;;;;;;1999.90;999.90;;;9.10;99.90;;;;;;5052262;28;20431;-68
2022/11/28 10:10:56;;;;;;;1999.90;999.90;;;9.10;99.90;;;;;;5052591;28;20435;-68
2022/11/28 10:13:38;;;;;;;1999.90;999.90;;;9.10;99.90;;;;;;5052554;28;21119;-68
2022/11/28 10:16:12;;;;;;;1999.90;999.90;;;9.10;99.90;;;;;;5052160;28;20482;-68
2022/11/28 10:18:45;;;;;;;1999.90;999.90;;;9.20;99.90;;;;;;5051798;28;20625;-68
2022/11/28 10:21:34;;;;;;;1999.90;999.90;;;9.30;99.90;;;;;;5052461;28;20486;-68
2022/11/28 10:24:06;;;;;;;1999.90;999.90;;;9.30;99.90;;;;;;5052355;28;20456;-68
2022/11/28 10:26:34;;;;;;;1999.90;999.90;;;9.40;99.90;;;;;;5051012;28;20429;-68
2022/11/28 10:29:06;;;;;;;1999.90;999.90;;;9.40;99.90;;;;;;5053632;28;20419;-68
2022/11/28 10:31:39;;;;;;;1999.90;999.90;;;9.40;99.90;;;;;;5055501;28;20926;-68
2022/11/28 10:34:29;;;;;;;1999.90;999.90;;;9.50;99.90;;;;;;5054740;28;20453;-68
2022/11/28 10:37:24;;;;;;;1999.90;999.90;;;9.40;99.90;;;;;;5054961;28;20780;-68
2022/11/28 10:39:51;;;;;;;1999.90;999.90;;;9.30;99.90;;;;;;5054702;28;20424;-68
2022/11/28 10:42:39;;;;;;;1999.90;999.90;;;9.40;99.90;;;;;;5054915;28;20411;-68
2022/11/28 10:45:17;;;;;;;1999.90;999.90;;;9.50;99.90;;;;;;5056536;28;20829;-68
2022/11/28 10:48:21;;;;;;;1999.90;999.90;;;9.50;99.90;;;;;;5055664;28;20395;-68
2022/11/28 10:51:00;;;;;;;1999.90;999.90;;;9.50;99.90;;;;;;5055727;28;20413;-68
2022/11/28 10:53:52;;;;;;;1999.90;999.90;;;9.50;99.90;;;;;;5055366;28;20455;-68
2022/11/28 10:56:36;;;;;;;1999.90;999.90;;;9.50;99.90;;;;;;5045868;28;20441;-68
2022/11/28 10:59:05;;;;;;;1999.90;999.90;;;9.50;99.90;;;;;;5051508;28;20429;-67
2022/11/28 11:01:37;;;;;;;1999.90;999.90;;;9.50;99.90;;;;;;5051552;28;20418;-68
2022/11/28 11:04:03;;;;;;;1999.90;999.90;;;9.50;99.90;;;;;;5051115;28;20804;-68
2022/11/28 11:06:29;;;;;;;1999.90;999.90;;;9.50;99.90;;;;;;5051212;28;20436;-68
2022/11/28 11:08:54;;;;;;;1999.90;999.90;;;9.50;99.90;;;;;;5051306;28;20410;-68
2022/11/28 11:11:28;;;;;;;1999.90;999.90;;;9.60;99.90;;;;;;5051407;28;20260;-68
2022/11/28 11:14:05;;;;;;;1999.90;999.90;;;9.60;99.90;;;;;;5052070;28;20179;-68
2022/11/28 11:16:55;;;;;;;1999.90;999.90;;;9.60;99.90;;;;;;5051653;28;21170;-68
2022/11/28 11:19:31;;;;;;;1999.90;999.90;;;9.70;99.90;;;;;;5051450;28;20411;-68
2022/11/28 11:22:05;;;;;;;1999.90;999.90;;;9.60;99.90;;;;;;5051894;28;20425;-68
2022/11/28 11:24:30;;;;;;;1999.90;999.90;;;9.60;99.90;;;;;;5053787;28;20461;-69
2022/11/28 11:27:22;;;;;;;1999.90;999.90;;;9.60;99.90;;;;;;5055840;28;20409;-68
2022/11/28 11:29:48;;;;;;;1999.90;999.90;;;9.50;99.90;;;;;;5050761;28;20424;-69
2022/11/28 11:32:22;;;;;;;1999.90;999.90;;;9.40;99.90;;;;;;5055504;28;20461;-69
2022/11/28 11:34:48;;;;;;;1999.90;999.90;;;9.50;99.90;;;;;;5051863;28;20436;-68
2022/11/28 11:37:17;;;;;;;1999.90;999.90;;;9.50;99.90;;;;;;5051104;28;20911;-68
2022/11/28 11:39:48;;;;;;;1999.90;999.90;;;9.50;99.90;;;;;;5050949;28;20784;-68
2022/11/28 11:42:20;;;;;;;1999.90;999.90;;;9.50;99.90;;;;;;5051665;28;20404;-68
2022/11/28 11:44:46;;;;;;;1999.90;999.90;;;9.50;99.90;;;;;;5051598;28;21045;-68
2022/11/28 11:47:12;;;;;;;1999.90;999.90;;;9.50;99.90;;;;;;5051118;28;20499;-65
2022/11/28 11:49:40;;;;;;;1999.90;999.90;;;9.50;99.90;;;;;;5051543;28;20205;-65
2022/11/28 11:52:12;;;;;;;1999.90;999.90;;;9.50;99.90;;;;;;5052305;28;20215;-67
2022/11/28 11:54:55;;;;;;;1999.90;999.90;;;9.60;99.90;;;;;;5054662;28;20439;-67
2022/11/28 11:57:55;;;;;;;1999.90;999.90;;;9.70;99.90;;;;;;5055233;28;20411;-67
2022/11/28 12:00:25;;;;;;;1999.90;999.90;;;9.70;99.90;;;;;;5021155;28;20433;-67
2022/11/28 12:02:58;;;;;;;1999.90;999.90;;;9.70;99.90;;;;;;5054425;28;21176;-67
2022/11/28 12:05:34;;;;;;;1999.90;999.90;;;9.70;99.90;;;;;;5055116;28;20432;-67
2022/11/28 12:08:10;;;;;;;1999.90;999.90;;;9.70;99.90;;;;;;5054966;28;20766;-67
2022/11/28 12:10:50;;;;;;;1999.90;999.90;;;9.80;99.90;;;;;;5054532;28;20388;-67
2022/11/28 12:13:22;;;;;;;1999.90;999.90;;;9.80;99.90;;;;;;5054997;28;20404;-68
2022/11/28 12:16:16;;;;;;;1999.90;999.90;;;9.80;99.90;;;;;;5054847;28;20459;-68
2022/11/28 12:18:45;;;;;;;1999.90;999.90;;;9.90;99.90;;;;;;5054177;28;20397;-68
2022/11/28 12:21:23;;;;;;;1999.90;999.90;;;9.90;99.90;;;;;;5054775;28;20401;-67
2022/11/28 12:23:55;;;;;;;1999.90;999.90;;;9.90;99.90;;;;;;5054728;28;20484;-67
2022/11/28 12:26:44;;;;;;;1999.90;999.90;;;9.90;99.90;;;;;;5053742;28;20438;-67
2022/11/28 12:29:41;;;;;;;1999.90;999.90;;;9.90;99.90;;;;;;5054232;28;20986;-67